createdAt,value
2022-09-22T00:09:32.703Z,100716.16
2022-09-22T00:19:38.368Z,100707.75
2022-09-22T00:29:42.575Z,100712.19
2022-09-22T00:39:52.665Z,100700.22
2022-09-22T00:50:14.646Z,100700.97
2022-09-22T01:00:20.291Z,100694.03
2022-09-22T01:10:24.226Z,100695.50
2022-09-22T01:21:04.183Z,100685.09
2022-09-22T01:31:16.082Z,100687.28
2022-09-22T01:41:36.015Z,100686.16
2022-09-22T01:51:45.913Z,100691.94
2022-09-22T02:02:04.007Z,100694.22
2022-09-22T02:12:06.010Z,100691.41
2022-09-22T02:22:09.338Z,100693.91
2022-09-22T02:32:16.186Z,100694.72
2022-09-22T02:42:25.845Z,100690.53
2022-09-22T02:52:28.975Z,100688.69
2022-09-22T03:02:33.361Z,100684.88
2022-09-22T03:12:36.056Z,100674.44
2022-09-22T03:22:41.673Z,100673.34
2022-09-22T03:32:43.324Z,100668.09
2022-09-22T03:42:44.992Z,100661.06
2022-09-22T03:52:47.061Z,100665.31
2022-09-22T04:02:48.748Z,100668.78
2022-09-22T04:12:50.433Z,100677.97
2022-09-22T04:22:52.139Z,100662.72
2022-09-22T04:32:55.159Z,100676.22
2022-09-22T04:42:57.885Z,100688.16
2022-09-22T04:52:59.737Z,100690.84
2022-09-22T05:03:03.484Z,100683.38
2022-09-22T05:13:07.199Z,100679.41
2022-09-22T05:23:11.189Z,100679.53
2022-09-22T05:33:13.948Z,100680.88
2022-09-22T05:43:16.728Z,100687.19
2022-09-22T05:53:18.308Z,100689.09
2022-09-22T06:03:19.884Z,100686.16
2022-09-22T06:13:21.765Z,100687.34
2022-09-22T06:23:26.012Z,100702.44
2022-09-22T06:33:30.400Z,100700.25
2022-09-22T06:43:37.973Z,100696.25
2022-09-22T06:53:39.805Z,100690.31
2022-09-22T07:03:45.730Z,100691.19
2022-09-22T07:13:53.485Z,100683.31
2022-09-22T07:23:56.465Z,100683.09
2022-09-22T07:34:01.389Z,100702.94
2022-09-22T07:44:22.369Z,100701.03
2022-09-22T07:54:25.609Z,100685.50
2022-09-22T08:04:31.139Z,100689.41
2022-09-22T08:14:33.877Z,100705.28
2022-09-22T08:24:37.327Z,100709.44
2022-09-22T08:34:44.614Z,100699.41
2022-09-22T08:45:09.526Z,100693.75
2022-09-22T08:55:22.507Z,100692.00
2022-09-22T09:05:50.074Z,100691.25
2022-09-22T09:16:06.975Z,100698.31
2022-09-22T09:26:08.642Z,100691.56
2022-09-22T09:36:17.668Z,100688.38
2022-09-22T09:46:26.709Z,100705.09
2022-09-22T09:56:30.189Z,100695.25
2022-09-22T10:06:32.061Z,100691.63
2022-09-22T10:16:36.246Z,100685.53
2022-09-22T10:26:52.105Z,100673.06
2022-09-22T10:36:54.625Z,100672.59
2022-09-22T10:47:27.247Z,100666.50
2022-09-22T10:57:56.267Z,100660.63
2022-09-22T11:08:26.710Z,100651.03
2022-09-22T11:18:58.557Z,100640.59
2022-09-22T11:29:10.810Z,100634.91
2022-09-22T11:39:26.435Z,100631.16
2022-09-22T11:49:46.628Z,100602.94
2022-09-22T12:00:08.484Z,100621.03
2022-09-22T12:10:23.034Z,100617.38
2022-09-22T12:20:45.079Z,100594.94
2022-09-22T12:31:00.966Z,100603.94
2022-09-22T12:41:08.252Z,100595.84
2022-09-22T12:51:31.402Z,100600.72
2022-09-22T13:01:34.810Z,100596.63
2022-09-22T13:12:12.079Z,100597.13
2022-09-22T13:22:20.700Z,100579.13
2022-09-22T13:32:27.091Z,100560.69
2022-09-22T13:42:34.237Z,100550.28
2022-09-22T13:52:39.791Z,100551.16
2022-09-22T14:02:44.525Z,100540.25
2022-09-22T14:12:48.840Z,100530.81
2022-09-22T14:22:50.556Z,100526.53
2022-09-22T14:32:57.036Z,100521.50
2022-09-22T14:43:09.662Z,100514.59
2022-09-22T14:53:22.991Z,100518.97
2022-09-22T15:03:29.619Z,100530.03
2022-09-22T15:13:39.261Z,100538.81
2022-09-22T15:23:45.088Z,100534.78
2022-09-22T15:33:49.400Z,100535.88
2022-09-22T15:43:52.613Z,100531.94
2022-09-22T15:53:56.880Z,100549.91
2022-09-22T16:04:00.428Z,100547.28
2022-09-22T16:14:06.083Z,100549.63
2022-09-22T16:24:10.229Z,100554.34
2022-09-22T16:34:19.113Z,100559.66
2022-09-22T16:44:22.103Z,100560.41
2022-09-22T16:54:24.815Z,100562.97
2022-09-22T17:04:33.049Z,100567.25
2022-09-22T17:14:37.085Z,100590.13
2022-09-22T17:24:40.762Z,100581.84
2022-09-22T17:34:42.451Z,100596.75
2022-09-22T17:44:44.388Z,100595.16
2022-09-22T17:55:04.587Z,100619.47
2022-09-22T18:05:09.216Z,100619.59
2022-09-22T18:15:13.438Z,100627.41
2022-09-22T18:25:16.773Z,100636.06
2022-09-22T18:35:18.619Z,100649.00
2022-09-22T18:45:20.539Z,100639.50
2022-09-22T18:55:22.802Z,100654.97
2022-09-22T19:05:27.682Z,100652.38
2022-09-22T19:15:29.462Z,100644.63
2022-09-22T19:25:32.644Z,100655.78
2022-09-22T19:35:39.192Z,100648.03
2022-09-22T19:45:41.293Z,100645.38
2022-09-22T19:55:50.787Z,100642.69
2022-09-22T20:05:52.946Z,100651.19
2022-09-22T20:15:54.852Z,100651.94
2022-09-22T20:26:03.835Z,100662.22
2022-09-22T20:36:06.206Z,100657.06
2022-09-22T20:46:09.446Z,100677.66
2022-09-22T20:56:12.061Z,100667.19
2022-09-22T21:06:17.045Z,100673.78
2022-09-22T21:16:18.835Z,100669.25
2022-09-22T21:26:20.953Z,100681.22
2022-09-22T21:36:24.339Z,100677.53
2022-09-22T21:46:29.633Z,100666.88
2022-09-22T21:56:33.830Z,100683.81
2022-09-22T22:06:43.138Z,100677.69
2022-09-22T22:16:49.924Z,100687.78
2022-09-22T22:26:54.806Z,100683.41
2022-09-22T22:37:01.178Z,100672.13
2022-09-22T22:47:05.443Z,100671.97
2022-09-22T22:57:07.129Z,100666.84
2022-09-22T23:07:08.801Z,100678.56
2022-09-22T23:17:10.947Z,100669.97
2022-09-22T23:27:21.892Z,100655.19
2022-09-22T23:37:25.036Z,100650.56
2022-09-22T23:47:28.959Z,100646.16
2022-09-22T23:57:30.700Z,100643.97
